Time;durP1;ratioP1;P1;durP2;ratioP2;P2;SDS_P1;SDS_P2;PMS_P1;PMS_P2;Temp;Humidity;BMP_temperature;BMP_pressure;BME280_temperature;BME280_humidity;BME280_pressure;Samples;Min_cycle;Max_cycle;Signal;HPM_P1;HPM_P2
2023/03/12 00:00:49;;;;;;;;;;;;;;;6.75;47.78;100115.81;4985426;28;10626;-75
2023/03/12 00:03:15;;;;;;;;;;;;;;;6.72;47.40;100103.78;4987264;28;6796;-75
2023/03/12 00:05:43;;;;;;;;;;;;;;;6.73;47.38;100102.97;4987599;28;7001;-75
2023/03/12 00:08:10;;;;;;;;;;;;;;;6.74;47.49;100093.69;4978207;28;6863;-76
2023/03/12 00:10:38;;;;;;;;;;;;;;;6.74;48.07;100091.13;4984570;28;6927;-75
2023/03/12 00:13:04;;;;;;;;;;;;;;;6.72;48.05;100085.94;4981345;28;6788;-75
2023/03/12 00:15:30;;;;;;;;;;;;;;;6.74;47.80;100083.50;4991969;28;6788;-75
2023/03/12 00:17:55;;;;;;;;;;;;;;;6.76;48.01;100089.56;4964629;28;6933;-75
2023/03/12 00:20:22;;;;;;;;;;;;;;;6.77;48.54;100087.09;4987601;28;7900;-75
2023/03/12 00:22:49;;;;;;;;;;;;;;;6.79;48.40;100082.97;4986626;28;7154;-75
2023/03/12 00:25:15;;;;;;;;;;;;;;;6.79;48.38;100090.63;4980376;28;7212;-75
2023/03/12 00:27:42;;;;;;;;;;;;;;;6.79;48.00;100090.63;4991817;28;6998;-75
2023/03/12 00:30:09;;;;;;;;;;;;;;;6.81;47.91;100086.47;4971774;28;6932;-75
2023/03/12 00:32:36;;;;;;;;;;;;;;;6.84;48.34;100075.59;4980650;28;12920;-75
2023/03/12 00:35:03;;;;;;;;;;;;;;;6.86;47.75;100076.56;4985036;28;6990;-75
2023/03/12 00:37:29;;;;;;;;;;;;;;;6.90;47.72;100075.94;4990348;28;6776;-75
2023/03/12 00:39:54;;;;;;;;;;;;;;;6.94;47.93;100077.00;4991486;28;6760;-75
2023/03/12 00:42:20;;;;;;;;;;;;;;;6.95;47.83;100073.66;4991129;28;6992;-75
2023/03/12 00:44:46;;;;;;;;;;;;;;;6.97;48.28;100077.19;4985332;28;6772;-75
2023/03/12 00:47:12;;;;;;;;;;;;;;;6.98;47.93;100075.50;4987623;28;6783;-75
2023/03/12 00:49:38;;;;;;;;;;;;;;;6.97;47.75;100072.09;4978323;28;6784;-75
2023/03/12 00:52:04;;;;;;;;;;;;;;;6.98;48.04;100071.28;4984674;28;8707;-75
2023/03/12 00:54:30;;;;;;;;;;;;;;;6.99;48.14;100073.06;4985280;28;6776;-75
2023/03/12 00:56:56;;;;;;;;;;;;;;;7.02;47.70;100082.53;4969903;28;7225;-75
2023/03/12 00:59:21;;;;;;;;;;;;;;;7.03;48.23;100077.50;4984550;28;7216;-75
2023/03/12 01:01:47;;;;;;;;;;;;;;;7.06;48.22;100071.72;4977740;28;6810;-75
2023/03/12 01:04:13;;;;;;;;;;;;;;;7.08;48.12;100053.19;4983953;28;6756;-75
2023/03/12 01:06:39;;;;;;;;;;;;;;;7.13;47.75;100048.34;4974949;28;6792;-75
2023/03/12 01:09:06;;;;;;;;;;;;;;;7.16;47.91;100047.66;4986244;28;6775;-75
2023/03/12 01:11:34;;;;;;;;;;;;;;;7.18;48.09;100046.06;4985412;28;6816;-75
2023/03/12 01:14:01;;;;;;;;;;;;;;;7.19;47.96;100045.25;4970629;28;6995;-75
2023/03/12 01:16:29;;;;;;;;;;;;;;;7.18;47.84;100041.81;4990709;28;6773;-75
2023/03/12 01:19:00;;;;;;;;;;;;;;;7.19;47.66;100041.03;4974118;28;6800;-75
2023/03/12 01:21:27;;;;;;;;;;;;;;;7.21;48.13;100041.13;4973053;28;7201;-75
2023/03/12 01:23:53;;;;;;;;;;;;;;;7.20;48.02;100024.97;4982170;28;6804;-75
2023/03/12 01:26:19;;;;;;;;;;;;;;;7.22;47.79;100022.47;4967829;28;6980;-76
2023/03/12 01:28:45;;;;;;;;;;;;;;;7.25;48.31;100022.66;4989698;28;6984;-75
2023/03/12 01:31:15;;;;;;;;;;;;;;;7.25;48.52;100022.66;4990399;28;8152;-75
2023/03/12 01:33:41;;;;;;;;;;;;;;;7.27;48.40;100026.19;4972407;28;6875;-75
2023/03/12 01:36:23;;;;;;;;;;;;;;;7.28;47.91;100017.72;4989883;28;7199;-75
2023/03/12 01:38:52;;;;;;;;;;;;;;;7.30;48.13;100016.13;4968612;28;6855;-75
2023/03/12 01:41:19;;;;;;;;;;;;;;;7.33;48.22;100007.78;4989285;28;6967;-75
2023/03/12 01:43:45;;;;;;;;;;;;;;;7.36;48.31;100002.84;4967041;28;7010;-75
2023/03/12 01:46:46;;;;;;;;;;;;;;;7.39;48.62;100005.59;4983522;28;7072;-75
2023/03/12 01:49:28;;;;;;;;;;;;;;;7.41;47.69;100005.66;4897461;29;6788;-75
2023/03/12 01:52:02;;;;;;;;;;;;;;;7.41;47.55;100001.44;4961357;28;7198;-75
2023/03/12 01:54:38;;;;;;;;;;;;;;;7.44;48.20;100011.78;4991905;28;6998;-75
2023/03/12 01:57:16;;;;;;;;;;;;;;;7.47;47.47;100003.44;4971129;28;7340;-75
2023/03/12 01:59:53;;;;;;;;;;;;;;;7.48;47.30;99998.44;4983138;28;11318;-75
2023/03/12 02:02:25;;;;;;;;;;;;;;;7.49;47.37;99981.44;4987238;28;6975;-75
2023/03/12 02:05:16;;;;;;;;;;;;;;;7.51;47.25;99979.84;4969009;28;6800;-75
2023/03/12 02:07:42;;;;;;;;;;;;;;;7.51;47.73;99979.84;4977781;28;6816;-75
2023/03/12 02:10:08;;;;;;;;;;;;;;;7.53;47.35;99977.38;4985731;28;6764;-75
2023/03/12 02:12:34;;;;;;;;;;;;;;;7.53;47.82;99978.25;4971450;28;6792;-75
2023/03/12 02:15:00;;;;;;;;;;;;;;;7.54;47.14;99980.03;4987732;28;6772;-75
2023/03/12 02:17:26;;;;;;;;;;;;;;;7.55;46.98;99979.22;4966088;28;8400;-75
2023/03/12 02:20:16;;;;;;;;;;;;;;;7.56;47.20;99967.34;4986692;28;6776;-75
2023/03/12 02:22:54;;;;;;;;;;;;;;;7.60;47.46;99965.03;4989339;28;6966;-75
2023/03/12 02:25:37;;;;;;;;;;;;;;;7.65;47.41;99962.72;4981210;28;6999;-75
2023/03/12 02:28:11;;;;;;;;;;;;;;;7.70;46.61;99961.31;5000998;28;6966;-75
2023/03/12 02:30:44;;;;;;;;;;;;;;;7.80;46.59;99952.44;4983871;28;6800;-75
2023/03/12 02:33:11;;;;;;;;;;;;;;;7.88;45.87;99951.16;4965789;28;7402;-75
2023/03/12 02:35:37;;;;;;;;;;;;;;;7.94;45.46;99955.72;4986915;28;6796;-75
2023/03/12 02:38:42;;;;;;;;;;;;;;;8.02;45.70;99953.56;4994648;28;6808;-75
2023/03/12 02:41:36;;;;;;;;;;;;;;;8.08;45.70;99937.69;4983752;28;7347;-75
2023/03/12 02:44:18;;;;;;;;;;;;;;;8.14;44.97;99930.31;4978670;28;7421;-75
2023/03/12 02:46:50;;;;;;;;;;;;;;;8.17;45.08;99939.00;4954305;28;8323;-75
2023/03/12 02:49:19;;;;;;;;;;;;;;;8.23;44.51;99935.03;4966955;28;6804;-75
2023/03/12 02:51:47;;;;;;;;;;;;;;;8.27;44.40;99939.47;4986718;28;6812;-75
2023/03/12 02:54:16;;;;;;;;;;;;;;;8.29;44.18;99933.66;4966049;28;6796;-75
2023/03/12 02:56:42;;;;;;;;;;;;;;;8.32;44.02;99926.13;4944996;28;8207;-75
2023/03/12 02:59:09;;;;;;;;;;;;;;;8.35;43.73;99927.97;4983985;28;6934;-75
2023/03/12 03:01:35;;;;;;;;;;;;;;;8.39;43.87;99931.56;4970670;28;6828;-75
2023/03/12 03:04:04;;;;;;;;;;;;;;;8.41;44.22;99938.50;4969115;28;6768;-75
2023/03/12 03:06:31;;;;;;;;;;;;;;;8.45;43.94;99930.16;4984252;28;7868;-75
2023/03/12 03:08:58;;;;;;;;;;;;;;;8.46;43.42;99936.16;4960700;28;7036;-75
2023/03/12 03:11:24;;;;;;;;;;;;;;;8.47;44.12;99938.78;4964090;28;7290;-75
2023/03/12 03:13:54;;;;;;;;;;;;;;;8.47;42.65;99933.66;4964799;28;6972;-75
2023/03/12 03:16:20;;;;;;;;;;;;;;;8.48;43.01;99934.56;4983296;28;8623;-75
2023/03/12 03:18:46;;;;;;;;;;;;;;;8.49;43.30;99936.31;4979901;28;6788;-75
2023/03/12 03:21:15;;;;;;;;;;;;;;;8.52;43.24;99943.28;4948243;28;8511;-75
2023/03/12 03:23:44;;;;;;;;;;;;;;;8.51;43.63;99942.41;4977700;28;6836;-75
2023/03/12 03:26:10;;;;;;;;;;;;;;;8.50;42.96;99939.72;4978380;28;6967;-75
2023/03/12 03:28:36;;;;;;;;;;;;;;;8.47;43.60;99928.56;4980730;28;6971;-75
2023/03/12 03:31:02;;;;;;;;;;;;;;;8.46;43.20;99925.97;4973036;28;7497;-75
2023/03/12 03:33:30;;;;;;;;;;;;;;;8.41;43.51;99925.72;4971159;28;6978;-75
2023/03/12 03:35:58;;;;;;;;;;;;;;;8.34;44.18;99921.13;4987269;28;6787;-75
2023/03/12 03:38:26;;;;;;;;;;;;;;;8.24;43.68;99922.31;4984099;28;6844;-75
2023/03/12 03:40:52;;;;;;;;;;;;;;;8.13;45.12;99920.91;4981718;28;7204;-75
2023/03/12 03:43:18;;;;;;;;;;;;;;;8.04;44.96;99924.75;4982916;28;6812;-75
2023/03/12 03:45:44;;;;;;;;;;;;;;;7.94;45.49;99930.19;4985244;28;6776;-75
2023/03/12 03:48:11;;;;;;;;;;;;;;;7.88;46.21;99920.56;4983543;28;7179;-75
2023/03/12 03:50:38;;;;;;;;;;;;;;;7.85;46.89;99915.31;4978991;28;6800;-75
2023/03/12 03:53:06;;;;;;;;;;;;;;;7.80;46.44;99916.72;4986844;28;6998;-77
2023/03/12 03:55:36;;;;;;;;;;;;;;;7.76;46.84;99923.34;4983371;28;6994;-78
2023/03/12 03:58:02;;;;;;;;;;;;;;;7.72;47.54;99910.34;4984416;28;7243;-78
2023/03/12 04:00:27;;;;;;;;;;;;;;;7.69;47.46;99915.31;4987746;28;7199;-78
2023/03/12 04:02:54;;;;;;;;;;;;;;;7.67;48.14;99909.25;4968589;28;6868;-77
2023/03/12 04:05:20;;;;;;;;;;;;;;;7.64;48.22;99908.31;4989456;28;6967;-78
2023/03/12 04:07:46;;;;;;;;;;;;;;;7.64;47.97;99915.94;4988725;28;7439;-78
2023/03/12 04:10:13;;;;;;;;;;;;;;;7.64;48.50;99913.41;4972575;28;6959;-75
2023/03/12 04:12:39;;;;;;;;;;;;;;;7.66;48.93;99910.06;4982850;28;6940;-75
2023/03/12 04:15:05;;;;;;;;;;;;;;;7.69;48.30;99908.53;4991736;28;7380;-78
2023/03/12 04:17:31;;;;;;;;;;;;;;;7.72;48.65;99908.69;4986628;28;6796;-76
2023/03/12 04:19:57;;;;;;;;;;;;;;;7.76;49.12;99899.53;4984878;28;6780;-76
2023/03/12 04:22:23;;;;;;;;;;;;;;;7.81;49.37;99892.97;4988778;28;7209;-78
2023/03/12 04:24:49;;;;;;;;;;;;;;;7.86;49.04;99896.63;4989694;28;8483;-76
2023/03/12 04:27:14;;;;;;;;;;;;;;;7.90;49.83;99901.09;4991330;28;7124;-78
2023/03/12 04:29:40;;;;;;;;;;;;;;;7.94;49.26;99899.56;4984078;28;6792;-79
2023/03/12 04:32:07;;;;;;;;;;;;;;;7.97;48.98;99888.66;4988490;28;6987;-75
2023/03/12 04:34:33;;;;;;;;;;;;;;;7.98;49.52;99880.19;4966788;28;8550;-78
2023/03/12 04:37:01;;;;;;;;;;;;;;;8.00;49.37;99876.03;4991548;28;8259;-78
2023/03/12 04:39:27;;;;;;;;;;;;;;;8.00;49.17;99869.25;4981057;28;6820;-78
2023/03/12 04:41:52;;;;;;;;;;;;;;;7.99;49.56;99870.06;4991615;28;7439;-76
2023/03/12 04:44:18;;;;;;;;;;;;;;;7.99;49.59;99872.63;4989093;28;7149;-78
2023/03/12 04:46:44;;;;;;;;;;;;;;;8.00;50.12;99876.03;4997798;28;7161;-77
2023/03/12 04:49:10;;;;;;;;;;;;;;;8.03;49.60;99878.75;4998661;28;6979;-78
2023/03/12 04:51:36;;;;;;;;;;;;;;;8.03;50.38;99858.34;4997428;28;6863;-78
2023/03/12 04:54:01;;;;;;;;;;;;;;;8.03;50.22;99859.19;4987710;28;6957;-78
2023/03/12 04:56:27;;;;;;;;;;;;;;;8.02;50.78;99847.25;5002592;28;7040;-78
2023/03/12 04:58:52;;;;;;;;;;;;;;;8.02;50.31;99847.25;4972750;28;8552;-78
2023/03/12 05:01:27;;;;;;;;;;;;;;;8.04;50.26;99854.97;4987623;28;6948;-77
2023/03/12 05:03:53;;;;;;;;;;;;;;;8.05;51.20;99846.53;4986972;28;6800;-78
2023/03/12 05:06:22;;;;;;;;;;;;;;;8.07;50.25;99842.38;4955171;28;7238;-75
2023/03/12 05:08:48;;;;;;;;;;;;;;;8.09;50.20;99848.41;4968887;28;7187;-78
2023/03/12 05:11:15;;;;;;;;;;;;;;;8.11;50.01;99846.84;4955806;28;8717;-78
2023/03/12 05:13:41;;;;;;;;;;;;;;;8.13;50.71;99849.44;4983879;28;7245;-77
2023/03/12 05:16:08;;;;;;;;;;;;;;;8.16;50.42;99845.38;4971058;28;6852;-79
2023/03/12 05:18:34;;;;;;;;;;;;;;;8.19;50.19;99847.19;4987810;28;7245;-78
2023/03/12 05:21:14;;;;;;;;;;;;;;;8.22;50.18;99847.34;4988219;28;6865;-78
2023/03/12 05:23:41;;;;;;;;;;;;;;;8.25;50.32;99828.75;4967347;28;6808;-78
2023/03/12 05:26:20;;;;;;;;;;;;;;;8.27;50.25;99815.25;4967267;28;6997;-78
2023/03/12 05:28:46;;;;;;;;;;;;;;;8.27;50.66;99812.72;4968117;28;10049;-78
2023/03/12 05:31:13;;;;;;;;;;;;;;;8.29;51.06;99815.31;4989071;28;6808;-77
2023/03/12 05:33:39;;;;;;;;;;;;;;;8.29;50.92;99808.53;4969287;28;8030;-76
2023/03/12 05:36:05;;;;;;;;;;;;;;;8.30;50.87;99801.75;4982530;28;7865;-77
2023/03/12 05:38:31;;;;;;;;;;;;;;;8.31;51.25;99798.41;4987737;28;6796;-78
2023/03/12 05:40:58;;;;;;;;;;;;;;;8.32;50.49;99790.81;4974432;28;6832;-78
2023/03/12 05:43:26;;;;;;;;;;;;;;;8.34;50.87;99793.44;4983902;28;6800;-78
2023/03/12 05:45:52;;;;;;;;;;;;;;;8.34;51.34;99791.75;4978971;28;7418;-78
2023/03/12 05:48:19;;;;;;;;;;;;;;;8.37;51.61;99787.59;4982962;28;6923;-75
2023/03/12 05:50:45;;;;;;;;;;;;;;;8.38;51.33;99787.66;4985931;28;6784;-78
2023/03/12 05:53:11;;;;;;;;;;;;;;;8.41;51.31;99792.03;4961362;28;6995;-76
2023/03/12 05:55:39;;;;;;;;;;;;;;;8.42;51.40;99781.91;4982418;28;7209;-76
2023/03/12 05:58:06;;;;;;;;;;;;;;;8.43;51.11;99793.88;4985250;28;6784;-76
2023/03/12 06:00:37;;;;;;;;;;;;;;;8.45;50.99;99799.91;4970335;28;6784;-76
2023/03/12 06:03:04;;;;;;;;;;;;;;;8.46;51.10;99788.03;4980986;28;7019;-75
2023/03/12 06:05:32;;;;;;;;;;;;;;;8.45;51.77;99787.16;4985703;28;7185;-75
2023/03/12 06:07:59;;;;;;;;;;;;;;;8.47;51.40;99784.69;4972158;28;7295;-76
2023/03/12 06:10:24;;;;;;;;;;;;;;;8.48;50.96;99786.44;4980976;28;7002;-75
2023/03/12 06:12:50;;;;;;;;;;;;;;;8.53;51.43;99791.78;4973072;28;6832;-75
2023/03/12 06:15:15;;;;;;;;;;;;;;;8.55;51.64;99788.50;4978130;28;7156;-76
2023/03/12 06:17:41;;;;;;;;;;;;;;;8.55;51.50;99782.50;4983087;28;6969;-75
2023/03/12 06:20:08;;;;;;;;;;;;;;;8.57;51.43;99780.88;4981726;28;6876;-75
2023/03/12 06:22:34;;;;;;;;;;;;;;;8.57;51.16;99786.88;4979181;28;6812;-76
2023/03/12 06:24:59;;;;;;;;;;;;;;;8.55;51.21;99793.63;4982278;28;7841;-77
2023/03/12 06:27:25;;;;;;;;;;;;;;;8.55;51.09;99787.63;4973831;28;7832;-78
2023/03/12 06:29:51;;;;;;;;;;;;;;;8.55;51.86;99780.84;4965936;28;7224;-78
2023/03/12 06:32:17;;;;;;;;;;;;;;;8.55;51.77;99787.63;4983226;28;6844;-77
2023/03/12 06:34:43;;;;;;;;;;;;;;;8.55;51.84;99788.50;4962061;28;6976;-78
2023/03/12 06:37:10;;;;;;;;;;;;;;;8.55;51.08;99792.72;4994496;28;6993;-77
2023/03/12 06:39:37;;;;;;;;;;;;;;;8.54;51.62;99801.19;4983225;28;7449;-76
2023/03/12 06:42:03;;;;;;;;;;;;;;;8.53;52.55;99805.41;4982667;28;6871;-76
2023/03/12 06:44:29;;;;;;;;;;;;;;;8.53;52.65;99789.22;4964519;28;6985;-75
2023/03/12 06:46:55;;;;;;;;;;;;;;;8.53;51.98;99794.34;4987044;28;7871;-75
2023/03/12 06:49:22;;;;;;;;;;;;;;;8.55;51.71;99779.94;4971255;28;8485;-75
2023/03/12 06:51:47;;;;;;;;;;;;;;;8.58;52.34;99787.75;4984431;28;7023;-75
2023/03/12 06:54:13;;;;;;;;;;;;;;;8.60;52.45;99787.00;4980966;28;6871;-75
2023/03/12 06:56:39;;;;;;;;;;;;;;;8.63;52.48;99796.50;4977079;28;6963;-77
2023/03/12 06:59:05;;;;;;;;;;;;;;;8.68;53.69;99786.50;4976340;28;6990;-75
2023/03/12 07:01:30;;;;;;;;;;;;;;;8.72;53.72;99781.59;4982080;28;6783;-75
2023/03/12 07:03:56;;;;;;;;;;;;;;;8.79;53.40;99775.09;4964046;28;6772;-75
2023/03/12 07:06:23;;;;;;;;;;;;;;;8.83;54.34;99768.44;4964434;28;8150;-78
2023/03/12 07:08:51;;;;;;;;;;;;;;;8.91;53.91;99781.53;4982473;28;6966;-75
2023/03/12 07:11:17;;;;;;;;;;;;;;;8.95;55.12;99768.13;4979078;28;6990;-76
2023/03/12 07:13:43;;;;;;;;;;;;;;;9.01;55.24;99770.91;4974222;28;7055;-75
2023/03/12 07:16:09;;;;;;;;;;;;;;;9.06;55.62;99766.91;4968126;28;6845;-76
2023/03/12 07:18:35;;;;;;;;;;;;;;;9.13;55.32;99762.91;4980145;28;6939;-76
2023/03/12 07:21:00;;;;;;;;;;;;;;;9.18;55.89;99764.00;4982645;28;7378;-76
2023/03/12 07:23:26;;;;;;;;;;;;;;;9.23;55.26;99759.09;4968055;28;6776;-76
2023/03/12 07:25:52;;;;;;;;;;;;;;;9.26;56.00;99767.75;4980078;28;6792;-75
2023/03/12 07:28:20;;;;;;;;;;;;;;;9.31;55.77;99763.72;4966919;28;6964;-75
2023/03/12 07:30:52;;;;;;;;;;;;;;;9.36;56.06;99766.47;4973033;28;7070;-76
2023/03/12 07:33:20;;;;;;;;;;;;;;;9.40;56.55;99767.47;4983226;28;7157;-75
2023/03/12 07:35:47;;;;;;;;;;;;;;;9.43;56.57;99765.94;4967396;28;7130;-75
2023/03/12 07:38:13;;;;;;;;;;;;;;;9.47;56.76;99769.50;4969863;28;6976;-75
2023/03/12 07:40:38;;;;;;;;;;;;;;;9.52;56.44;99774.81;4969666;28;8021;-75
2023/03/12 07:43:11;;;;;;;;;;;;;;;9.55;57.36;99768.13;4981500;28;6780;-75
2023/03/12 07:45:39;;;;;;;;;;;;;;;9.56;57.13;99764.78;4961737;28;7364;-75
2023/03/12 07:48:06;;;;;;;;;;;;;;;9.61;57.02;99766.63;4981994;28;6847;-75
2023/03/12 07:50:32;;;;;;;;;;;;;;;9.66;57.13;99776.25;4967731;28;7571;-75
2023/03/12 07:52:57;;;;;;;;;;;;;;;9.71;57.06;99766.19;4984902;28;6856;-75
2023/03/12 07:55:23;;;;;;;;;;;;;;;9.78;57.23;99769.88;4968239;28;7028;-75
2023/03/12 07:57:49;;;;;;;;;;;;;;;9.81;57.62;99770.03;4980589;28;6974;-76
2023/03/12 08:00:15;;;;;;;;;;;;;;;9.87;58.07;99765.13;4952416;28;7153;-75
2023/03/12 08:02:41;;;;;;;;;;;;;;;9.93;58.18;99764.50;4984147;28;6772;-75
2023/03/12 08:05:07;;;;;;;;;;;;;;;9.97;57.74;99777.50;4968640;28;6950;-75
2023/03/12 08:07:34;;;;;;;;;;;;;;;10.01;58.30;99763.13;4980921;28;6803;-75
2023/03/12 08:10:07;;;;;;;;;;;;;;;10.05;58.80;99762.47;4979571;28;7003;-74
2023/03/12 08:12:33;;;;;;;;;;;;;;;10.08;58.44;99770.25;4957571;28;7554;-75
2023/03/12 08:14:59;;;;;;;;;;;;;;;10.11;58.28;99767.81;4980837;28;6776;-75
2023/03/12 08:17:25;;;;;;;;;;;;;;;10.14;58.10;99765.38;4976275;28;7390;-75
2023/03/12 08:19:51;;;;;;;;;;;;;;;10.18;58.76;99758.69;4972482;28;7167;-77
2023/03/12 08:22:16;;;;;;;;;;;;;;;10.23;58.97;99758.84;4980150;28;7022;-75
2023/03/12 08:24:42;;;;;;;;;;;;;;;10.26;59.15;99756.44;4986183;28;6792;-75
2023/03/12 08:27:10;;;;;;;;;;;;;;;10.31;59.18;99757.47;4981820;28;6799;-75
2023/03/12 08:29:37;;;;;;;;;;;;;;;10.39;59.08;99757.78;4969212;28;6796;-76
2023/03/12 08:32:03;;;;;;;;;;;;;;;10.44;59.18;99761.41;4980040;28;6796;-75
2023/03/12 08:34:28;;;;;;;;;;;;;;;10.51;59.28;99765.06;4980775;28;7352;-75
2023/03/12 08:36:55;;;;;;;;;;;;;;;10.56;59.95;99767.00;4964067;28;7840;-74
2023/03/12 08:39:20;;;;;;;;;;;;;;;10.63;60.02;99767.25;4983584;28;6804;-76
2023/03/12 08:41:46;;;;;;;;;;;;;;;10.67;59.65;99767.41;4975648;28;6768;-73
2023/03/12 08:44:12;;;;;;;;;;;;;;;10.72;59.46;99770.16;4988525;28;6927;-76
2023/03/12 08:46:37;;;;;;;;;;;;;;;10.76;59.97;99763.44;4991211;28;6780;-73
2023/03/12 08:49:03;;;;;;;;;;;;;;;10.82;60.29;99772.22;4982146;28;6994;-73
2023/03/12 08:51:29;;;;;;;;;;;;;;;10.92;60.31;99765.75;4970058;28;6961;-73
2023/03/12 08:53:54;;;;;;;;;;;;;;;11.00;60.23;99771.16;4983025;28;7070;-75
2023/03/12 08:56:21;;;;;;;;;;;;;;;11.07;60.33;99777.38;4980751;28;7151;-73
2023/03/12 08:58:47;;;;;;;;;;;;;;;11.12;60.18;99775.88;4969579;28;7170;-74
2023/03/12 09:01:13;;;;;;;;;;;;;;;11.16;60.50;99781.97;4987510;28;7161;-73
2023/03/12 09:03:42;;;;;;;;;;;;;;;11.27;60.44;99784.91;4996940;28;7028;-76
2023/03/12 09:06:14;;;;;;;;;;;;;;;11.33;60.49;99790.25;4987266;28;7176;-74
2023/03/12 09:08:42;;;;;;;;;;;;;;;11.39;60.41;99790.47;4977704;28;7053;-73
2023/03/12 09:11:10;;;;;;;;;;;;;;;11.40;60.57;99797.38;4972397;28;6795;-73
2023/03/12 09:13:36;;;;;;;;;;;;;;;11.45;61.00;99798.38;4985576;28;7039;-74
2023/03/12 09:16:04;;;;;;;;;;;;;;;11.52;60.40;99797.78;4989107;28;7384;-76
2023/03/12 09:18:30;;;;;;;;;;;;;;;11.57;60.28;99797.06;4988609;28;6784;-73
2023/03/12 09:20:57;;;;;;;;;;;;;;;11.63;60.34;99795.56;4981599;28;6981;-73
2023/03/12 09:23:24;;;;;;;;;;;;;;;11.68;60.47;99803.41;4979661;28;6796;-74
2023/03/12 09:25:49;;;;;;;;;;;;;;;11.75;60.79;99800.25;4983495;28;7414;-76
2023/03/12 09:28:16;;;;;;;;;;;;;;;11.78;60.85;99795.25;4974371;28;7136;-73
2023/03/12 09:30:41;;;;;;;;;;;;;;;11.84;60.81;99796.25;4987226;28;6979;-77
2023/03/12 09:33:07;;;;;;;;;;;;;;;11.90;60.41;99804.16;4987837;28;6856;-75
2023/03/12 09:35:33;;;;;;;;;;;;;;;11.97;61.27;99808.66;4994192;28;6859;-73
2023/03/12 09:37:58;;;;;;;;;;;;;;;12.02;60.74;99802.03;4987686;28;7215;-76
2023/03/12 09:40:29;;;;;;;;;;;;;;;12.05;60.71;99802.09;4990598;28;6970;-74
2023/03/12 09:43:09;;;;;;;;;;;;;;;12.15;60.69;99794.69;4983213;28;7185;-75
2023/03/12 09:45:44;;;;;;;;;;;;;;;12.23;60.61;99790.69;4994612;28;7053;-73
2023/03/12 09:48:22;;;;;;;;;;;;;;;12.30;61.30;99791.75;4979126;28;6868;-74
2023/03/12 09:50:50;;;;;;;;;;;;;;;12.39;61.42;99791.16;4987759;28;6884;-72
2023/03/12 09:53:30;;;;;;;;;;;;;;;12.52;60.66;99790.72;4991710;28;6780;-75
2023/03/12 09:56:01;;;;;;;;;;;;;;;12.66;61.55;99803.13;4991272;28;6808;-74
2023/03/12 09:58:33;;;;;;;;;;;;;;;12.81;61.09;99800.97;4988489;28;7270;-75
2023/03/12 10:01:10;;;;;;;;;;;;;;;12.97;61.34;99814.28;4986594;28;7446;-75
2023/03/12 10:04:14;;;;;;;;;;;;;;;13.09;60.95;99811.22;4989214;28;7451;-73
2023/03/12 10:07:04;;;;;;;;;;;;;;;13.17;60.10;99815.72;4988441;28;7469;-75
2023/03/12 10:10:26;;;;;;;;;;;;;;;13.24;60.72;99818.50;4988577;28;7737;-77
2023/03/12 10:13:34;;;;;;;;;;;;;;;13.32;60.35;99827.25;4988701;28;7230;-74
2023/03/12 10:16:08;;;;;;;;;;;;;;;13.40;59.84;99828.34;4979297;28;7118;-76
2023/03/12 10:19:28;;;;;;;;;;;;;;;13.48;59.99;99833.75;4984349;28;6954;-73
2023/03/12 10:22:29;;;;;;;;;;;;;;;13.54;60.30;99840.78;4955319;28;7229;-72
2023/03/12 10:25:25;;;;;;;;;;;;;;;13.59;59.52;99832.34;4987511;28;7411;-74
2023/03/12 10:27:57;;;;;;;;;;;;;;;13.63;60.36;99845.28;4996778;28;6986;-72
2023/03/12 10:30:29;;;;;;;;;;;;;;;13.67;60.53;99845.41;4976208;28;6871;-76
2023/03/12 10:33:03;;;;;;;;;;;;;;;13.72;60.04;99841.28;4990143;28;6906;-74
2023/03/12 10:35:30;;;;;;;;;;;;;;;13.79;60.19;99849.13;4984645;28;6872;-72
2023/03/12 10:38:00;;;;;;;;;;;;;;;13.87;59.44;99857.94;4982292;28;7179;-73
2023/03/12 10:40:35;;;;;;;;;;;;;;;13.95;59.79;99852.97;4988924;28;7249;-73
2023/03/12 10:43:03;;;;;;;;;;;;;;;13.99;59.83;99853.09;4972490;28;6796;-74
2023/03/12 10:45:55;;;;;;;;;;;;;;;14.06;60.03;99854.13;4980799;28;6973;-75
2023/03/12 10:48:24;;;;;;;;;;;;;;;14.11;59.51;99856.84;4988370;28;6887;-76
2023/03/12 10:51:11;;;;;;;;;;;;;;;14.15;59.66;99862.09;4974228;28;7178;-73
2023/03/12 10:53:46;;;;;;;;;;;;;;;14.20;59.27;99867.38;4968295;28;6974;-74
2023/03/12 10:56:16;;;;;;;;;;;;;;;14.25;59.60;99859.75;4984933;28;6986;-74
2023/03/12 10:58:49;;;;;;;;;;;;;;;14.30;59.04;99859.03;4975849;28;7173;-74
2023/03/12 11:01:22;;;;;;;;;;;;;;;14.37;59.62;99856.56;4986025;28;6863;-76
2023/03/12 11:03:50;;;;;;;;;;;;;;;14.45;59.21;99847.31;4987908;28;7674;-74
2023/03/12 11:06:27;;;;;;;;;;;;;;;14.57;59.79;99841.56;4987653;28;7396;-74
2023/03/12 11:09:08;;;;;;;;;;;;;;;14.68;59.80;99837.53;4974027;28;7316;-74
2023/03/12 11:11:35;;;;;;;;;;;;;;;14.74;58.98;99838.53;4988728;28;6953;-73
2023/03/12 11:14:21;;;;;;;;;;;;;;;14.77;59.34;99844.59;4977916;28;6784;-75
2023/03/12 11:16:47;;;;;;;;;;;;;;;14.76;58.56;99840.28;4973190;28;8423;-73
2023/03/12 11:19:32;;;;;;;;;;;;;;;14.81;58.50;99837.81;4981218;28;6963;-75
2023/03/12 11:22:06;;;;;;;;;;;;;;;14.86;58.34;99837.06;4985391;28;7286;-75
2023/03/12 11:24:34;;;;;;;;;;;;;;;14.92;58.80;99838.06;4980242;28;7331;-73
2023/03/12 11:27:41;;;;;;;;;;;;;;;15.04;58.54;99838.31;4988461;28;6987;-75
2023/03/12 11:30:16;;;;;;;;;;;;;;;15.12;58.85;99839.34;4986235;28;6808;-72
2023/03/12 11:32:48;;;;;;;;;;;;;;;15.29;58.39;99854.31;4954451;28;11406;-73
2023/03/12 11:35:29;;;;;;;;;;;;;;;15.45;57.91;99852.88;4989062;28;7269;-74
2023/03/12 11:38:41;;;;;;;;;;;;;;;15.65;57.53;99842.06;4987827;28;7211;-73
2023/03/12 11:41:28;;;;;;;;;;;;;;;15.83;58.28;99846.69;4898965;29;7473;-73
2023/03/12 11:44:02;;;;;;;;;;;;;;;16.22;58.63;99840.50;4989186;28;6803;-74
2023/03/12 11:46:55;;;;;;;;;;;;;;;16.76;57.47;99848.16;4967415;28;7011;-77
2023/03/12 11:50:01;;;;;;;;;;;;;;;17.28;56.69;99839.34;4987020;28;6795;-73
2023/03/12 11:52:54;;;;;;;;;;;;;;;17.72;55.16;99832.91;4986785;28;7230;-73
2023/03/12 11:55:50;;;;;;;;;;;;;;;17.86;54.54;99830.41;4990986;28;7581;-72
2023/03/12 11:58:28;;;;;;;;;;;;;;;17.76;53.50;99818.22;4991356;28;6812;-73
2023/03/12 12:01:16;;;;;;;;;;;;;;;17.60;53.25;99814.63;4988693;28;8064;-73
2023/03/12 12:04:03;;;;;;;;;;;;;;;17.55;53.71;99822.34;4986679;28;7181;-73
2023/03/12 12:07:07;;;;;;;;;;;;;;;17.61;54.10;99818.97;4990135;28;6815;-74
2023/03/12 12:09:56;;;;;;;;;;;;;;;18.03;54.46;99816.75;4992208;28;6816;-73
2023/03/12 12:13:02;;;;;;;;;;;;;;;18.90;52.65;99812.13;4991077;28;6943;-73
2023/03/12 12:15:55;;;;;;;;;;;;;;;19.62;50.85;99820.16;4991068;28;6991;-72
2023/03/12 12:18:40;;;;;;;;;;;;;;;20.07;49.90;99799.41;4994127;28;7067;-76
2023/03/12 12:21:21;;;;;;;;;;;;;;;20.23;48.71;99803.75;4990849;28;6800;-73
2023/03/12 12:24:34;;;;;;;;;;;;;;;20.04;48.09;99804.59;4989752;28;6864;-72
2023/03/12 12:27:25;;;;;;;;;;;;;;;19.63;47.47;99808.91;4996410;28;6800;-75
2023/03/12 12:30:24;;;;;;;;;;;;;;;19.28;47.65;99802.78;4984450;28;6959;-72
2023/03/12 12:33:26;;;;;;;;;;;;;;;18.97;48.18;99802.63;4995815;28;11056;-73
2023/03/12 12:35:52;;;;;;;;;;;;;;;18.78;48.85;99793.91;4991292;28;6812;-73
2023/03/12 12:38:48;;;;;;;;;;;;;;;18.71;48.82;99793.00;4991470;28;6772;-73
2023/03/12 12:41:24;;;;;;;;;;;;;;;18.57;48.26;99804.16;4978813;28;7161;-73
2023/03/12 12:43:57;;;;;;;;;;;;;;;18.50;48.79;99791.16;4970608;28;7003;-72
2023/03/12 12:46:35;;;;;;;;;;;;;;;18.45;49.05;99798.91;4982407;28;6795;-74
2023/03/12 12:49:16;;;;;;;;;;;;;;;18.38;48.82;99789.34;4972119;28;6971;-72
2023/03/12 12:51:52;;;;;;;;;;;;;;;18.32;48.55;99790.19;4990338;28;6796;-75
2023/03/12 12:54:22;;;;;;;;;;;;;;;18.24;48.61;99792.75;4993184;28;7007;-73
2023/03/12 12:57:11;;;;;;;;;;;;;;;18.17;48.48;99796.13;4971539;28;6985;-73
2023/03/12 13:00:18;;;;;;;;;;;;;;;18.04;47.86;99801.25;4986277;28;6824;-72
2023/03/12 13:02:46;;;;;;;;;;;;;;;17.91;48.69;99800.22;4989569;28;11326;-73
2023/03/12 13:05:35;;;;;;;;;;;;;;;17.81;48.36;99785.47;4982896;28;7156;-73
2023/03/12 13:08:04;;;;;;;;;;;;;;;17.70;48.28;99787.94;4972969;28;7022;-75
2023/03/12 13:10:32;;;;;;;;;;;;;;;17.65;48.52;99787.06;4989175;28;6792;-76
2023/03/12 13:13:19;;;;;;;;;;;;;;;17.67;48.95;99787.94;4990727;28;6971;-72
2023/03/12 13:15:45;;;;;;;;;;;;;;;17.71;48.90;99781.06;4984008;28;6804;-75
2023/03/12 13:18:25;;;;;;;;;;;;;;;17.79;48.67;99778.53;4982694;28;7213;-73
2023/03/12 13:20:50;;;;;;;;;;;;;;;17.80;48.60;99778.56;4986007;28;6792;-73
2023/03/12 13:23:50;;;;;;;;;;;;;;;17.82;47.75;99782.00;4991993;28;7228;-74
2023/03/12 13:26:59;;;;;;;;;;;;;;;17.77;47.45;99781.13;4988187;28;7230;-73